Time;durP1;ratioP1;P1;durP2;ratioP2;P2;SDS_P1;SDS_P2;PMS_P1;PMS_P2;Temp;Humidity;BMP_temperature;BMP_pressure;BME280_temperature;BME280_humidity;BME280_pressure;Samples;Min_cycle;Max_cycle;Signal;HPM_P1;HPM_P2
2021/11/02 00:00:54;;;;;;;;;4.67;3.67;;;;;10.10;72.52;99721.56;4971599;28;45755;-74
2021/11/02 00:03:20;;;;;;;;;6.33;4.00;;;;;10.11;72.65;99713.56;4972445;28;45365;-74
2021/11/02 00:05:45;;;;;;;;;5.00;5.00;;;;;10.11;72.24;99718.00;4972429;28;45598;-74
2021/11/02 00:08:10;;;;;;;;;10.00;5.67;;;;;10.12;72.42;99712.59;4973418;28;45359;-74
2021/11/02 00:10:36;;;;;;;;;5.00;5.00;;;;;10.12;72.79;99709.97;4973192;28;45575;-73
2021/11/02 00:13:03;;;;;;;;;9.33;4.33;;;;;10.14;72.28;99717.72;4973548;28;45377;-71
2021/11/02 00:15:34;;;;;;;;;8.00;4.00;;;;;10.13;72.79;99706.41;4971015;28;45497;-73
2021/11/02 00:18:03;;;;;;;;;3.00;3.00;;;;;10.10;72.78;99711.06;4969562;28;45518;-73
2021/11/02 00:20:30;;;;;;;;;3.67;3.00;;;;;10.08;72.69;99704.16;4972030;28;46388;-77
2021/11/02 00:22:57;;;;;;;;;3.00;3.00;;;;;10.08;72.42;99698.91;4956576;28;45401;-74
2021/11/02 00:25:25;;;;;;;;;3.67;3.00;;;;;10.12;72.79;99704.72;4974418;28;45536;-76
2021/11/02 00:27:51;;;;;;;;;3.00;3.00;;;;;10.15;72.50;99703.63;4971681;28;45308;-74
2021/11/02 00:30:18;;;;;;;;;5.00;3.00;;;;;10.15;73.01;99708.88;4970804;28;46290;-76
2021/11/02 00:32:47;;;;;;;;;5.00;3.67;;;;;10.17;72.86;99701.69;4973899;28;45355;-72
2021/11/02 00:35:14;;;;;;;;;3.00;2.00;;;;;10.19;72.68;99699.75;4974637;28;45395;-75
2021/11/02 00:37:40;;;;;;;;;3.00;3.00;;;;;10.18;72.73;99696.28;4973142;28;45340;-75
2021/11/02 00:40:07;;;;;;;;;10.00;5.00;;;;;10.18;72.79;99695.47;4971747;28;45988;-74
2021/11/02 00:42:38;;;;;;;;;3.00;3.00;;;;;10.19;72.61;99702.38;4969960;28;45360;-75
2021/11/02 00:45:12;;;;;;;;;5.00;3.33;;;;;10.12;72.47;99682.88;4971580;28;45410;-74
2021/11/02 00:47:39;;;;;;;;;5.67;3.33;;;;;10.18;72.84;99698.09;4973717;28;45411;-75
2021/11/02 00:50:11;;;;;;;;;9.00;4.33;;;;;10.17;72.43;99697.28;4972097;28;45501;-70
2021/11/02 00:52:40;;;;;;;;;3.00;2.00;;;;;10.17;72.78;99685.94;4971995;28;45397;-73
2021/11/02 00:55:07;;;;;;;;;3.00;2.33;;;;;10.20;73.11;99688.31;4972731;28;45461;-74
2021/11/02 00:57:34;;;;;;;;;4.33;3.00;;;;;10.28;73.27;99679.75;4975272;28;45566;-76
2021/11/02 00:59:59;;;;;;;;;4.67;2.67;;;;;10.39;73.34;99679.63;4981969;28;46103;-75
2021/11/02 01:02:25;;;;;;;;;3.00;1.00;;;;;10.50;72.77;99676.84;4973107;28;45408;-75
2021/11/02 01:04:51;;;;;;;;;1.67;0.00;;;;;10.60;72.88;99676.88;4971570;28;45248;-76
2021/11/02 01:07:16;;;;;;;;;1.00;1.00;;;;;10.67;72.53;99664.81;4972891;28;45586;-72
2021/11/02 01:09:43;;;;;;;;;3.67;3.00;;;;;10.75;72.08;99663.28;4970591;28;46243;-75
2021/11/02 01:12:09;;;;;;;;;2.33;1.00;;;;;10.80;72.01;99661.88;4971085;28;45490;-74
2021/11/02 01:14:34;;;;;;;;;1.67;1.00;;;;;10.86;71.38;99650.81;4972692;28;45546;-76
2021/11/02 01:17:00;;;;;;;;;3.00;2.00;;;;;10.92;71.67;99659.91;4971139;28;45359;-76
2021/11/02 01:19:26;;;;;;;;;3.00;3.00;;;;;10.99;71.89;99661.03;4971483;28;46278;-78
2021/11/02 01:21:51;;;;;;;;;2.00;2.00;;;;;11.04;71.63;99652.69;4970222;28;45473;-70
2021/11/02 01:24:17;;;;;;;;;0.33;0.00;;;;;11.09;71.68;99645.22;4985007;28;45417;-70
2021/11/02 01:26:42;;;;;;;;;1.00;1.00;;;;;11.19;71.28;99655.69;4970642;28;45497;-70
2021/11/02 01:29:08;;;;;;;;;2.67;1.00;;;;;11.34;71.71;99653.44;4971072;28;46271;-69
2021/11/02 01:31:33;;;;;;;;;1.67;1.00;;;;;11.55;71.43;99654.00;4972476;28;45269;-68
2021/11/02 01:33:59;;;;;;;;;2.67;1.00;;;;;11.61;70.69;99649.97;4971838;28;45555;-72
2021/11/02 01:36:24;;;;;;;;;2.00;1.00;;;;;11.59;70.50;99654.56;4972441;28;45517;-70
2021/11/02 01:38:50;;;;;;;;;3.00;0.00;;;;;11.58;70.43;99644.19;4971185;28;46157;-70
2021/11/02 01:41:18;;;;;;;;;2.00;1.00;;;;;11.60;69.91;99658.84;4970518;28;45525;-70
2021/11/02 01:43:44;;;;;;;;;1.00;1.00;;;;;11.57;69.82;99653.84;4971472;28;45646;-71
2021/11/02 01:46:40;;;;;;;;;1.00;1.00;;;;;11.48;69.65;99650.31;4972605;28;45324;-69
2021/11/02 01:49:07;;;;;;;;;3.00;2.00;;;;;11.51;70.51;99654.47;4976380;28;46169;-71
2021/11/02 01:51:33;;;;;;;;;1.00;1.00;;;;;11.65;70.68;99651.34;4970619;28;45354;-70
2021/11/02 01:54:00;;;;;;;;;2.00;0.33;;;;;11.82;69.67;99651.50;4969816;28;45502;-69
2021/11/02 01:56:25;;;;;;;;;3.00;1.67;;;;;11.81;68.78;99645.41;4971477;28;45468;-67
2021/11/02 01:58:53;;;;;;;;;1.00;1.00;;;;;11.72;69.45;99647.13;4969775;28;46865;-67
2021/11/02 02:01:31;;;;;;;;;1.33;1.00;;;;;11.80;69.79;99648.19;4970563;28;45618;-69
2021/11/02 02:03:59;;;;;;;;;1.67;1.33;;;;;11.92;69.93;99657.53;4972021;28;45470;-69
2021/11/02 02:06:34;;;;;;;;;5.00;2.00;;;;;12.00;69.25;99654.19;4970139;28;45540;-69
2021/11/02 02:09:11;;;;;;;;;1.00;0.00;;;;;12.05;69.08;99652.78;4970516;28;47133;-69
2021/11/02 02:12:01;;;;;;;;;1.00;1.00;;;;;12.02;68.91;99658.31;4970400;28;45755;-68
2021/11/02 02:14:33;;;;;;;;;2.00;2.00;;;;;11.96;68.35;99658.94;4970792;28;45301;-69
2021/11/02 02:17:01;;;;;;;;;2.33;1.33;;;;;11.93;68.89;99653.91;4967586;28;45431;-67
2021/11/02 02:19:47;;;;;;;;;3.33;2.00;;;;;11.90;67.96;99659.50;4972625;28;47261;-68
2021/11/02 02:22:51;;;;;;;;;1.33;1.33;;;;;11.77;68.33;99659.84;4971507;28;45361;-69
2021/11/02 02:25:35;;;;;;;;;1.00;1.00;;;;;11.65;68.37;99664.50;4971063;28;45387;-69
2021/11/02 02:28:20;;;;;;;;;2.00;2.00;;;;;11.55;68.81;99653.19;4972452;28;45496;-73
2021/11/02 02:30:59;;;;;;;;;3.33;2.00;;;;;11.44;69.06;99658.63;4970588;28;47243;-69
2021/11/02 02:33:29;;;;;;;;;2.00;2.00;;;;;11.36;69.47;99659.38;4968173;28;45528;-71
2021/11/02 02:35:56;;;;;;;;;3.00;2.00;;;;;11.25;69.20;99665.66;4969154;28;45410;-73
2021/11/02 02:38:24;;;;;;;;;3.00;2.00;;;;;11.09;69.96;99658.34;4970111;28;45340;-71
2021/11/02 02:40:52;;;;;;;;;1.00;1.00;;;;;10.95;69.65;99658.81;4971240;28;46285;-70
2021/11/02 02:43:20;;;;;;;;;5.33;1.67;;;;;10.84;69.95;99659.81;4972586;28;45506;-71
2021/11/02 02:45:48;;;;;;;;;3.00;2.00;;;;;10.76;70.92;99659.69;4970491;28;45414;-72
2021/11/02 02:48:17;;;;;;;;;3.00;1.00;;;;;10.67;71.02;99656.13;4970679;28;45636;-71
2021/11/02 02:50:46;;;;;;;;;3.00;2.00;;;;;10.64;71.21;99657.22;4970276;28;47417;-70
2021/11/02 02:53:12;;;;;;;;;3.67;1.00;;;;;10.60;70.99;99649.75;4969886;28;46052;-70
2021/11/02 02:55:41;;;;;;;;;2.00;2.00;;;;;10.56;71.17;99650.03;4990270;28;45706;-70
2021/11/02 02:58:06;;;;;;;;;4.00;2.33;;;;;10.52;71.75;99648.66;4974387;28;45599;-70
2021/11/02 03:00:32;;;;;;;;;3.00;1.67;;;;;10.47;71.24;99650.88;4971478;28;45522;-70
2021/11/02 03:03:01;;;;;;;;;2.00;1.00;;;;;10.44;71.97;99650.34;4973659;28;45595;-70
2021/11/02 03:05:27;;;;;;;;;1.00;1.00;;;;;10.38;71.67;99646.47;4971665;28;45429;-70
2021/11/02 03:07:54;;;;;;;;;1.67;1.67;;;;;10.34;72.01;99645.88;4970517;28;45526;-70
2021/11/02 03:10:21;;;;;;;;;4.00;2.00;;;;;10.31;71.70;99645.34;4973438;28;46342;-68
2021/11/02 03:12:49;;;;;;;;;1.67;1.67;;;;;10.26;72.40;99648.34;4979080;28;45314;-69
2021/11/02 03:18:04;;;;;;;;;2.67;2.00;;;;;10.29;72.33;99636.75;4968660;28;45315;-69
2021/11/02 03:48:20;;;;;;;;;4.00;2.33;;;;;10.57;72.86;99648.25;5045469;28;45600;-69
2021/11/02 04:01:45;;;;;;;;;2.67;2.67;;;;;10.42;72.89;99641.75;5042699;28;45361;-69
2021/11/02 04:45:34;;;;;;;;;1.00;1.00;;;;;10.48;73.71;99656.97;5010704;28;45601;-68
2021/11/02 05:47:48;;;;;;;;;2.00;2.00;;;;;10.41;73.50;99661.94;4950933;28;46478;-70
2021/11/02 06:06:46;;;;;;;;;1.00;1.00;;;;;10.39;73.25;99656.84;4970562;28;45400;-69
2021/11/02 06:09:26;;;;;;;;;2.67;2.00;;;;;10.39;73.27;99662.09;4979864;28;45310;-70
2021/11/02 06:28:48;;;;;;;;;2.33;1.33;;;;;10.30;72.92;99677.78;4969270;28;45233;-69
2021/11/02 06:31:20;;;;;;;;;2.67;2.00;;;;;10.32;73.06;99684.56;4971886;28;45384;-70
2021/11/02 06:33:52;;;;;;;;;2.00;2.00;;;;;10.36;72.77;99685.97;4969630;28;45567;-69
2021/11/02 06:44:37;;;;;;;;;4.67;1.00;;;;;10.44;71.91;99694.97;4958859;28;45221;-70
2021/11/02 06:53:31;;;;;;;;;1.67;0.67;;;;;10.45;70.57;99701.88;4969298;28;45434;-70
2021/11/02 07:15:44;;;;;;;;;2.33;0.33;;;;;10.56;69.52;99720.13;4973398;28;45474;-69
2021/11/02 07:18:21;;;;;;;;;1.00;1.00;;;;;10.50;69.97;99718.06;4970807;28;45273;-67
2021/11/02 07:21:40;;;;;;;;;0.67;0.00;;;;;10.51;70.12;99724.97;4972712;28;45991;-68
2021/11/02 07:23:49;;;;;;;;;1.33;1.33;;;;;10.49;69.81;99722.44;4969096;28;45540;-69
2021/11/02 07:26:58;;;;;;;;;0.00;0.00;;;;;10.51;70.20;99731.03;4972369;28;45454;-69
2021/11/02 08:45:55;;;;;;;;;1.00;1.00;;;;;10.94;67.87;99794.63;4973340;28;45480;-68
2021/11/02 08:48:03;;;;;;;;;2.33;1.00;;;;;11.03;67.20;99798.22;4976174;27;45589;-71
2021/11/02 08:50:43;;;;;;;;;0.00;0.00;;;;;11.14;66.92;99799.88;4972648;28;45455;-67
2021/11/02 08:53:11;;;;;;;;;2.00;0.00;;;;;11.18;67.46;99799.44;4958257;28;45431;-68
2021/11/02 08:55:37;;;;;;;;;1.00;1.00;;;;;11.22;66.64;99807.88;4973268;28;45500;-67
2021/11/02 08:58:04;;;;;;;;;1.33;1.33;;;;;11.22;67.02;99807.88;4973446;28;45386;-69
2021/11/02 09:00:30;;;;;;;;;1.00;1.00;;;;;11.23;66.10;99807.75;4971655;28;46407;-70
2021/11/02 09:03:13;;;;;;;;;2.67;1.00;;;;;11.25;65.65;99812.88;4972257;28;45334;-69
2021/11/02 09:05:41;;;;;;;;;0.00;0.00;;;;;11.21;66.28;99822.00;4970823;28;45565;-69
2021/11/02 09:08:10;;;;;;;;;0.33;0.33;;;;;11.18;65.77;99817.00;4971271;28;45411;-69
2021/11/02 09:10:39;;;;;;;;;1.00;1.00;;;;;11.18;65.54;99820.47;4973129;28;46186;-69
2021/11/02 09:13:06;;;;;;;;;1.00;1.00;;;;;11.17;66.32;99810.94;4975827;28;45441;-69
2021/11/02 09:15:33;;;;;;;;;1.00;1.00;;;;;11.19;65.90;99810.78;4972132;28;45294;-69
2021/11/02 09:18:06;;;;;;;;;1.67;1.00;;;;;11.25;66.30;99828.63;4971957;28;45378;-70
2021/11/02 09:20:31;;;;;;;;;2.00;0.67;;;;;11.28;65.44;99812.56;4972036;28;45482;-68
2021/11/02 09:22:56;;;;;;;;;0.00;0.00;;;;;11.24;65.64;99811.19;4970048;28;45407;-70
2021/11/02 09:25:22;;;;;;;;;0.00;0.00;;;;;11.21;65.64;99806.22;4973320;28;45519;-68
2021/11/02 09:27:48;;;;;;;;;2.00;0.33;;;;;11.19;65.95;99813.41;4972240;28;45390;-70
2021/11/02 09:30:16;;;;;;;;;0.00;0.00;;;;;11.20;65.41;99812.44;4971564;28;48670;-69
2021/11/02 09:32:50;;;;;;;;;1.00;1.00;;;;;11.30;65.22;99815.06;4971827;28;45609;-69
2021/11/02 09:35:18;;;;;;;;;1.00;1.00;;;;;11.37;65.21;99811.72;4972033;28;45463;-69
2021/11/02 09:37:55;;;;;;;;;0.33;0.00;;;;;11.34;64.99;99809.38;4971851;28;45310;-70
2021/11/02 09:40:29;;;;;;;;;1.33;1.00;;;;;11.36;65.45;99811.88;4973147;28;46283;-70
2021/11/02 09:43:03;;;;;;;;;1.00;1.00;;;;;11.42;64.28;99818.34;4972239;28;45527;-69
2021/11/02 09:45:52;;;;;;;;;0.67;0.67;;;;;11.36;64.29;99815.34;4970570;27;45675;-68
2021/11/02 09:48:53;;;;;;;;;0.33;0.33;;;;;11.31;64.74;99817.56;4971022;28;45253;-69
2021/11/02 09:51:58;;;;;;;;;1.33;1.33;;;;;11.31;64.68;99817.56;4971534;28;45535;-70
2021/11/02 09:54:47;;;;;;;;;0.00;0.00;;;;;11.31;64.32;99817.56;4971185;28;45371;-69
2021/11/02 09:57:50;;;;;;;;;3.33;1.33;;;;;11.31;64.41;99812.31;4971375;28;45379;-69
2021/11/02 10:00:24;;;;;;;;;1.00;1.00;;;;;11.41;64.96;99816.72;4969609;28;45534;-69
2021/11/02 10:03:20;;;;;;;;;2.00;0.67;;;;;11.49;65.13;99822.09;4971361;28;46156;-68
2021/11/02 10:06:18;;;;;;;;;2.67;1.67;;;;;11.63;64.16;99818.19;4961997;28;45483;-73
2021/11/02 10:08:46;;;;;;;;;4.33;4.00;;;;;11.71;64.19;99819.13;4972923;28;45445;-70
2021/11/02 10:11:30;;;;;;;;;2.00;1.67;;;;;11.84;63.54;99826.66;4972311;28;45519;-69
2021/11/02 10:14:15;;;;;;;;;5.67;4.00;;;;;11.98;61.55;99822.78;4971350;28;45399;-69
2021/11/02 10:16:43;;;;;;;;;0.33;0.33;;;;;12.11;61.53;99829.53;4970106;28;45680;-69
2021/11/02 10:19:47;;;;;;;;;1.33;0.00;;;;;12.17;61.94;99828.94;4973324;28;45289;-70
2021/11/02 10:22:34;;;;;;;;;1.00;1.00;;;;;12.21;60.74;99839.03;4971591;28;45523;-68
2021/11/02 10:25:15;;;;;;;;;1.33;1.00;;;;;12.27;61.00;99837.59;4973001;28;46413;-70
2021/11/02 10:28:02;;;;;;;;;0.00;0.00;;;;;12.30;60.99;99834.69;4970151;28;45671;-71
2021/11/02 10:30:49;;;;;;;;;0.00;0.00;;;;;12.30;61.67;99842.59;4970320;28;45604;-67
2021/11/02 10:33:21;;;;;;;;;3.33;1.00;;;;;12.33;61.02;99844.09;4971490;28;45517;-70
2021/11/02 10:36:00;;;;;;;;;1.33;1.00;;;;;12.37;61.40;99851.53;4971023;28;46193;-71
2021/11/02 10:38:47;;;;;;;;;1.00;1.00;;;;;12.40;61.06;99852.25;4971563;28;45493;-70
2021/11/02 10:41:19;;;;;;;;;1.00;1.00;;;;;12.44;61.94;99853.59;4969945;28;45577;-68
2021/11/02 10:43:50;;;;;;;;;2.67;1.00;;;;;12.45;62.06;99857.91;4971496;28;45502;-68
2021/11/02 10:46:15;;;;;;;;;0.00;0.00;;;;;12.45;60.93;99863.97;4973191;28;46522;-70
2021/11/02 10:48:43;;;;;;;;;1.00;1.00;;;;;12.48;60.93;99854.97;4970804;28;45500;-69
2021/11/02 10:51:21;;;;;;;;;2.00;2.00;;;;;12.46;60.32;99854.28;4969336;28;45798;-69
2021/11/02 10:53:57;;;;;;;;;2.33;2.00;;;;;12.47;61.21;99850.69;4971506;28;45343;-70
2021/11/02 10:57:05;;;;;;;;;3.33;2.00;;;;;12.51;60.69;99844.97;4969572;28;47022;-70
2021/11/02 10:59:32;;;;;;;;;3.00;1.00;;;;;12.53;61.00;99848.28;4959571;28;45379;-70
2021/11/02 11:01:58;;;;;;;;;1.67;1.00;;;;;12.51;61.14;99838.88;4969756;28;45413;-68
2021/11/02 11:04:31;;;;;;;;;2.00;2.00;;;;;12.46;60.38;99822.69;4971903;28;45532;-70
2021/11/02 11:06:58;;;;;;;;;3.33;1.00;;;;;12.42;60.63;99834.50;4968673;28;46171;-70
2021/11/02 11:09:28;;;;;;;;;0.00;0.00;;;;;12.30;60.48;99829.44;4969538;28;45488;-70
2021/11/02 11:11:59;;;;;;;;;4.00;3.00;;;;;12.24;60.88;99845.81;4969465;28;45673;-67
2021/11/02 11:14:32;;;;;;;;;6.67;6.67;;;;;12.19;60.43;99842.78;4969348;28;45502;-76
2021/11/02 11:16:59;;;;;;;;;1.00;1.00;;;;;12.12;60.40;99834.63;4970896;28;46175;-70
2021/11/02 11:19:27;;;;;;;;;1.00;1.00;;;;;12.10;60.87;99846.28;4971502;28;45555;-70
2021/11/02 11:21:55;;;;;;;;;3.33;3.33;;;;;12.03;61.20;99849.50;4973343;28;45579;-70
2021/11/02 11:24:31;;;;;;;;;4.67;4.67;;;;;11.95;61.32;99841.50;4968701;28;45415;-71
2021/11/02 11:26:59;;;;;;;;;6.33;2.00;;;;;11.92;61.53;99841.75;4968730;28;46388;-70
2021/11/02 11:29:27;;;;;;;;;4.00;2.33;;;;;11.96;61.88;99837.06;4968264;28;45791;-70
2021/11/02 11:31:58;;;;;;;;;5.00;3.00;;;;;12.08;61.10;99828.00;4969651;28;45429;-70
2021/11/02 11:34:42;;;;;;;;;13.67;11.00;;;;;12.28;60.84;99826.09;4971155;28;45593;-70
2021/11/02 11:37:09;;;;;;;;;1.67;1.33;;;;;12.42;60.72;99829.22;4972396;28;46500;-71
2021/11/02 11:39:34;;;;;;;;;2.00;2.00;;;;;12.56;59.91;99818.19;4970459;28;45466;-71
2021/11/02 11:42:00;;;;;;;;;2.00;2.00;;;;;12.71;60.04;99821.13;4968155;28;45475;-72
2021/11/02 11:44:27;;;;;;;;;1.00;1.00;;;;;12.85;59.44;99814.50;4969801;28;45429;-71
2021/11/02 11:47:14;;;;;;;;;0.33;0.00;;;;;12.96;58.91;99809.00;4970828;28;45616;-72
2021/11/02 11:49:45;;;;;;;;;3.00;1.33;;;;;13.06;58.97;99813.34;4970791;28;45396;-71
2021/11/02 11:52:11;;;;;;;;;1.00;1.00;;;;;13.12;59.15;99803.03;4972180;28;45361;-70
2021/11/02 11:54:45;;;;;;;;;6.00;6.00;;;;;13.15;59.54;99813.25;4971527;28;45281;-71
2021/11/02 11:57:25;;;;;;;;;2.00;2.00;;;;;13.15;58.81;99809.81;4972497;28;46514;-71
2021/11/02 11:59:51;;;;;;;;;15.00;15.00;;;;;13.07;58.71;99809.75;4971183;28;45583;-71
2021/11/02 12:02:34;;;;;;;;;12.33;11.33;;;;;12.96;58.28;99803.72;4970674;28;45536;-72
2021/11/02 12:05:05;;;;;;;;;3.00;3.00;;;;;12.84;59.23;99799.66;4959860;28;45400;-71
2021/11/02 12:07:57;;;;;;;;;1.33;1.33;;;;;12.83;58.86;99795.38;4973189;28;46252;-70
2021/11/02 12:10:25;;;;;;;;;1.00;1.00;;;;;12.86;59.33;99793.25;4973154;28;45586;-72
2021/11/02 12:12:54;;;;;;;;;1.00;1.00;;;;;12.81;58.76;99792.06;4975317;28;45534;-71
2021/11/02 12:15:20;;;;;;;;;2.00;2.00;;;;;12.73;59.44;99791.97;4973207;28;45576;-69
2021/11/02 12:17:50;;;;;;;;;0.67;0.00;;;;;12.68;59.44;99792.44;4972173;28;46539;-71
2021/11/02 12:20:16;;;;;;;;;1.00;1.00;;;;;12.70;59.42;99793.94;4974384;28;45884;-71
2021/11/02 12:22:49;;;;;;;;;1.67;1.00;;;;;12.79;59.11;99786.09;4972357;28;45560;-69
2021/11/02 12:25:21;;;;;;;;;1.00;1.00;;;;;12.90;59.40;99791.16;4973478;28;45607;-73
2021/11/02 12:27:47;;;;;;;;;1.00;1.00;;;;;12.93;58.05;99784.75;4973999;28;46145;-71
2021/11/02 12:30:16;;;;;;;;;1.00;1.00;;;;;12.90;58.16;99783.25;4973051;28;45419;-70
2021/11/02 12:32:46;;;;;;;;;1.00;1.00;;;;;12.84;58.92;99778.56;4970393;28;45702;-71
2021/11/02 12:35:22;;;;;;;;;0.33;0.33;;;;;12.80;58.52;99777.22;4970528;28;45515;-72
2021/11/02 12:37:57;;;;;;;;;1.00;1.00;;;;;12.78;58.82;99779.19;4972367;28;45575;-71
2021/11/02 12:40:33;;;;;;;;;1.00;1.00;;;;;12.84;59.19;99773.31;4973892;28;45520;-71
2021/11/02 12:42:58;;;;;;;;;0.00;0.00;;;;;12.95;58.32;99767.00;4956503;28;45478;-71
2021/11/02 12:45:27;;;;;;;;;0.00;0.00;;;;;13.12;57.55;99770.56;4967654;28;45477;-71
2021/11/02 12:47:59;;;;;;;;;0.33;0.33;;;;;13.24;57.32;99774.59;4971555;28;47270;-71
2021/11/02 12:50:28;;;;;;;;;1.00;0.00;;;;;13.29;56.82;99767.03;4971952;28;45382;-73
2021/11/02 12:52:57;;;;;;;;;0.00;0.00;;;;;13.30;56.12;99760.78;4973202;28;45331;-70
2021/11/02 12:55:29;;;;;;;;;0.00;0.00;;;;;13.29;56.72;99761.78;4973786;28;45459;-71
2021/11/02 12:58:07;;;;;;;;;2.00;0.00;;;;;13.25;57.35;99765.72;4972503;28;46249;-70
2021/11/02 13:00:52;;;;;;;;;1.00;0.00;;;;;13.23;56.69;99758.94;4969599;28;45336;-69
2021/11/02 13:03:26;;;;;;;;;1.00;1.00;;;;;13.17;57.33;99758.56;4979030;28;45450;-70
2021/11/02 13:06:03;;;;;;;;;0.00;0.00;;;;;13.15;57.10;99759.69;4971756;28;45347;-71
2021/11/02 13:08:33;;;;;;;;;1.00;0.00;;;;;13.14;55.81;99758.03;4971759;28;46010;-71
2021/11/02 13:11:05;;;;;;;;;0.33;0.33;;;;;13.22;56.69;99760.75;4957050;28;45443;-72
2021/11/02 13:13:37;;;;;;;;;1.00;1.00;;;;;13.26;56.74;99755.97;4970917;28;45442;-70
2021/11/02 13:16:03;;;;;;;;;2.00;0.67;;;;;13.27;56.87;99753.22;4973389;28;45506;-72
2021/11/02 13:18:32;;;;;;;;;0.33;0.33;;;;;13.36;56.49;99747.03;4971659;28;45834;-71
2021/11/02 13:21:22;;;;;;;;;1.00;1.00;;;;;13.43;56.67;99741.09;4971559;28;45335;-70
2021/11/02 13:23:58;;;;;;;;;1.33;1.00;;;;;13.44;56.77;99742.75;4971781;27;45397;-71
2021/11/02 13:26:24;;;;;;;;;0.00;0.00;;;;;13.42;56.41;99744.75;4971671;27;45355;-71
2021/11/02 13:28:50;;;;;;;;;0.00;0.00;;;;;13.47;56.16;99737.19;4971913;28;46102;-70
2021/11/02 13:31:34;;;;;;;;;2.00;2.00;;;;;13.50;55.42;99742.97;4973059;28;45626;-72
2021/11/02 13:34:18;;;;;;;;;0.00;0.00;;;;;13.56;55.39;99741.53;4972754;28;45442;-70
2021/11/02 13:36:45;;;;;;;;;2.00;1.00;;;;;13.62;54.70;99740.06;4971589;28;45498;-71
2021/11/02 13:39:13;;;;;;;;;4.67;4.67;;;;;13.68;55.08;99745.53;4969728;28;46234;-71
2021/11/02 13:41:48;;;;;;;;;0.67;0.67;;;;;13.66;55.39;99746.66;4966696;28;45530;-71
2021/11/02 13:44:15;;;;;;;;;1.00;1.00;;;;;13.62;55.98;99740.91;4971122;28;45401;-71
2021/11/02 13:46:54;;;;;;;;;0.33;0.33;;;;;13.62;55.50;99730.34;4972571;28;45338;-72
2021/11/02 13:49:20;;;;;;;;;3.00;2.00;;;;;13.64;55.85;99733.63;4972437;28;45922;-69
2021/11/02 13:51:47;;;;;;;;;0.00;0.00;;;;;13.63;55.95;99726.69;4971188;28;45394;-72
2021/11/02 13:54:12;;;;;;;;;0.00;0.00;;;;;13.63;55.98;99728.53;4971277;28;45304;-72
2021/11/02 13:56:41;;;;;;;;;0.33;0.00;;;;;13.64;56.25;99725.72;4971394;28;45504;-71
2021/11/02 13:59:08;;;;;;;;;0.00;0.00;;;;;13.66;55.04;99731.69;4971042;28;46253;-71
2021/11/02 14:01:42;;;;;;;;;0.00;0.00;;;;;13.71;55.21;99725.91;4972269;28;45479;-70
2021/11/02 14:04:15;;;;;;;;;0.00;0.00;;;;;13.73;55.51;99725.78;4972903;28;45406;-71
2021/11/02 14:06:47;;;;;;;;;0.00;0.00;;;;;13.68;55.37;99724.41;4970765;28;45365;-70
2021/11/02 14:09:24;;;;;;;;;2.00;0.00;;;;;13.60;55.43;99732.31;4970728;28;46151;-72
2021/11/02 14:11:49;;;;;;;;;0.00;0.00;;;;;13.55;54.84;99739.84;4971214;28;45494;-70
2021/11/02 14:14:32;;;;;;;;;1.00;1.00;;;;;13.47;55.58;99726.63;4970552;28;45505;-70
2021/11/02 14:17:13;;;;;;;;;0.67;0.67;;;;;13.41;55.73;99719.34;4972099;28;45459;-72
2021/11/02 14:19:43;;;;;;;;;0.33;0.33;;;;;13.33;55.52;99720.91;4971375;28;47351;-73
2021/11/02 14:22:10;;;;;;;;;2.00;0.00;;;;;13.31;56.13;99719.41;4973407;28;45343;-70
2021/11/02 14:24:44;;;;;;;;;0.00;0.00;;;;;13.26;56.56;99717.25;4977397;27;45374;-71
2021/11/02 14:27:39;;;;;;;;;0.67;0.67;;;;;13.22;56.66;99723.84;4974032;28;45301;-72
2021/11/02 14:30:05;;;;;;;;;0.00;0.00;;;;;13.21;57.03;99727.44;4971243;28;46088;-72
2021/11/02 14:32:36;;;;;;;;;2.00;1.00;;;;;13.21;57.57;99727.44;4971309;28;45489;-69
2021/11/02 14:35:12;;;;;;;;;2.33;1.00;;;;;13.23;57.46;99729.94;4955846;28;45298;-72
2021/11/02 14:37:46;;;;;;;;;3.00;1.00;;;;;13.25;57.57;99727.97;4972021;28;45492;-71
2021/11/02 14:40:25;;;;;;;;;0.33;0.33;;;;;13.24;57.52;99732.41;4970645;28;46443;-71
2021/11/02 14:42:54;;;;;;;;;1.00;1.00;;;;;13.22;57.66;99729.09;4970029;28;45383;-69
2021/11/02 14:45:37;;;;;;;;;1.00;1.00;;;;;13.20;57.94;99728.44;4970381;28;45488;-69
2021/11/02 14:48:33;;;;;;;;;1.67;1.00;;;;;13.11;57.92;99724.09;4970400;28;45477;-70
2021/11/02 14:51:17;;;;;;;;;0.67;0.67;;;;;13.02;58.30;99724.00;4970269;28;46338;-70
2021/11/02 14:53:44;;;;;;;;;0.67;0.67;;;;;12.96;58.23;99731.72;4968615;28;45541;-71
2021/11/02 14:56:14;;;;;;;;;1.00;1.00;;;;;12.89;58.63;99723.59;4969159;28;45576;-71
2021/11/02 14:58:40;;;;;;;;;2.00;0.33;;;;;12.82;58.67;99727.84;4971317;28;45368;-71
2021/11/02 15:01:16;;;;;;;;;1.33;0.67;;;;;12.77;58.96;99727.47;4971358;28;45721;-71
2021/11/02 15:03:49;;;;;;;;;4.00;2.00;;;;;12.72;59.28;99730.56;4970746;28;45636;-71
2021/11/02 15:06:15;;;;;;;;;1.33;1.00;;;;;12.67;59.19;99723.09;4970501;28;45320;-70
2021/11/02 15:08:46;;;;;;;;;4.00;2.00;;;;;12.63;59.59;99720.94;4971740;28;45507;-71
2021/11/02 15:11:17;;;;;;;;;3.00;3.00;;;;;12.58;59.94;99720.56;4970875;28;45913;-71
2021/11/02 15:13:52;;;;;;;;;2.00;1.00;;;;;12.52;60.13;99716.72;4971163;28;45826;-70
2021/11/02 15:16:19;;;;;;;;;2.33;2.00;;;;;12.48;60.17;99718.00;4971323;28;45335;-69
2021/11/02 15:18:46;;;;;;;;;0.00;0.00;;;;;12.46;59.97;99714.69;4970365;28;45474;-71
2021/11/02 15:21:17;;;;;;;;;0.67;0.00;;;;;12.45;59.48;99721.75;4969700;28;46928;-70
2021/11/02 15:23:47;;;;;;;;;1.00;1.00;;;;;12.41;60.07;99714.31;4971753;28;45270;-71
2021/11/02 15:26:16;;;;;;;;;4.33;0.67;;;;;12.40;59.47;99710.03;4982192;28;45345;-70
2021/11/02 15:28:48;;;;;;;;;2.33;1.67;;;;;12.38;60.20;99713.63;4972183;28;45436;-71
2021/11/02 15:31:20;;;;;;;;;6.33;4.33;;;;;12.33;59.76;99701.91;4972927;28;47421;-70
2021/11/02 15:33:46;;;;;;;;;2.00;2.00;;;;;12.34;59.66;99704.38;4972443;28;45245;-70
2021/11/02 15:36:20;;;;;;;;;3.00;3.00;;;;;12.32;60.14;99703.69;4971272;28;45457;-71
2021/11/02 15:39:04;;;;;;;;;1.00;0.00;;;;;12.29;60.05;99701.38;4982618;28;46454;-72
2021/11/02 15:41:30;;;;;;;;;1.00;1.00;;;;;12.27;60.43;99705.13;4972788;28;46220;-70
2021/11/02 15:44:07;;;;;;;;;0.00;0.00;;;;;12.22;59.64;99695.03;4972947;28;45698;-71
2021/11/02 15:46:37;;;;;;;;;2.00;1.00;;;;;12.20;59.61;99705.72;4971383;28;45399;-71
2021/11/02 15:49:10;;;;;;;;;1.33;1.00;;;;;12.18;59.79;99701.56;4974079;28;45529;-70
2021/11/02 15:51:38;;;;;;;;;1.00;1.00;;;;;12.15;60.05;99700.06;4974824;28;45430;-72
2021/11/02 15:54:15;;;;;;;;;1.00;1.00;;;;;12.10;60.02;99696.25;4974719;28;45324;-70
2021/11/02 15:56:42;;;;;;;;;1.00;1.00;;;;;12.10;59.91;99697.06;4973158;28;45342;-69
2021/11/02 15:59:09;;;;;;;;;3.67;3.00;;;;;12.08;60.36;99700.81;4973603;28;45238;-70
2021/11/02 16:01:43;;;;;;;;;1.00;1.00;;;;;12.04;60.38;99698.50;4974665;28;46384;-72
2021/11/02 16:04:27;;;;;;;;;1.67;1.00;;;;;12.02;60.54;99704.88;4974562;28;45344;-70
2021/11/02 16:07:00;;;;;;;;;4.00;2.00;;;;;12.00;60.42;99702.41;4972797;28;47587;-69
2021/11/02 16:09:42;;;;;;;;;2.00;2.00;;;;;11.98;60.44;99693.81;4973168;28;45478;-70
2021/11/02 16:12:30;;;;;;;;;3.00;3.00;;;;;11.95;60.46;99698.50;4973694;28;45379;-70
2021/11/02 16:14:57;;;;;;;;;1.50;1.50;;;;;11.92;60.79;99698.81;4971776;28;45405;-71
2021/11/02 16:17:24;;;;;;;;;3.67;2.00;;;;;11.88;60.83;99693.00;4971827;28;45432;-71
2021/11/02 16:19:51;;;;;;;;;2.00;1.67;;;;;11.85;61.23;99693.31;4972914;28;45430;-70
2021/11/02 16:22:19;;;;;;;;;2.00;1.00;;;;;11.80;61.36;99685.03;4974824;28;45323;-70
2021/11/02 16:24:44;;;;;;;;;2.00;2.00;;;;;11.80;61.34;99687.66;4972154;28;45605;-70
2021/11/02 16:27:21;;;;;;;;;3.00;2.67;;;;;11.75;61.55;99687.28;4972752;28;45568;-71
2021/11/02 16:29:49;;;;;;;;;2.00;2.00;;;;;11.71;61.95;99686.75;4973030;28;45297;-71
2021/11/02 16:32:19;;;;;;;;;3.00;3.00;;;;;11.66;61.86;99684.56;4972985;28;45421;-71
2021/11/02 16:34:44;;;;;;;;;4.00;3.00;;;;;11.64;62.10;99688.31;4972106;28;45413;-71
2021/11/02 16:37:10;;;;;;;;;4.00;3.00;;;;;11.59;62.52;99688.75;4972587;28;45461;-72
2021/11/02 16:39:35;;;;;;;;;1.00;1.00;;;;;11.54;62.39;99676.00;4966756;28;45589;-71
2021/11/02 16:42:05;;;;;;;;;3.00;2.00;;;;;11.52;63.03;99687.66;4963837;28;46153;-69
2021/11/02 16:44:34;;;;;;;;;5.33;2.67;;;;;11.49;63.02;99682.69;4972239;28;45485;-70